Hlavní strana
METAR-TAF:

METAR-TAF

Letiště :

Båtsfjord, Norsko

zeměpisná šířka: 70-38N, zeměpisná délka: 029-44E, výška: 10 m

Aktuální stav počasí

Zpráva byla vytvořena před 13 hodinami a 8 minutami, v 20:20 UTC
Západoseverozápadní vítr 23 kt
Teplota 4°C
Vlhkost vzduchu 87%
Tlak 1020 hPa
Viditelnost 10 km a více
Polojasno ve výšce 1100 ft
Oblačno až skoro zataženo ve výšce 2000 ft
slabé dešťové přeháňky

METAR: ENBS 292020Z 30023KT 9999 -SHRA SCT011 BKN020 04/02 Q1020

Čas: 11:28 (09:28 UTC)


TAF: chybějící

Stav a předpovědi počasí z více než 4 000 letišť (zprávy METAR a TAF).

Červené a žluté tečky na mapě představují dostupné meteorologické stanice.

Když kurzor umístíte na tečku, zobrazí se název stanice.

Pak kliknutím zobrazíte stav a předpověď počasí.

Chcete-li změnit mapu, kliknutím na zelené tlačítko se znaménkem +mapu přiblížíte, kliknutím na zelené tlačítko se znaménkem – mapu oddálíte a kliknutím na zelené šipky přejdete na sousední mapy.


METAR-TAF: